• Join FlightAware (Why Join?)
  • Login
  • US Flag 
12:23PM EDT


 

Airport Tracker/Info


-or-


 

Live Flight TrackerFlight Track Log ✈ SWA1096 ✈ 15-Apr-2013 ✈ KBWI - KMHT

Flight Track Log - Related Links

Times and Time Zones

All times are in EDT time to prevent confusion due to time zone crossing. See the SWA1096 flight status page for this flight to view local times or setup timezone preferences in your user account.

Time Position Orientation Groundspeed Altitude Reporting Facility
EDT Latitude Longitude Course Direction KTS MPH feet Rate Location/Type
03:44PM 39.1333 -76.6500 131° Southeast 170 196 2,000  Level Potomac TRACON
03:45PM 39.1000 -76.6000 131° Southeast 198 228 5,000 2,760 Climbing Potomac TRACON
03:46PM 39.1000 -76.5167 90° East 280 322 7,600 3,240 Climbing Potomac TRACON
03:48PM 39.1342 -76.3247 77° East 310 357 14,400 3,180 Climbing Washington Center
03:49PM 39.0908 -76.2253 119° Southeast 289 333 16,900 1,200 Climbing Washington Center
03:50PM 39.0267 -76.1286 130° Southeast 313 360 16,900 660 Level Washington Center
03:51PM 39.0397 -76.0272 81° East 271 312 18,300 2,340 Climbing Washington Center
03:52PM 39.1192 -75.9608 33° Northeast 257 296 21,600 2,220 Climbing Washington Center
03:53PM 39.1964 -75.8781 40° Northeast 307 353 22,800 660 Climbing Washington Center
03:54PM 39.2758 -75.7739 45° Northeast 358 412 23,000 1,260 Climbing Washington Center
03:55PM 39.3594 -75.6667 45° Northeast 394 453 25,400 2,400 Climbing Washington Center
03:56PM 39.4406 -75.5619 45° Northeast 407 468 27,900 2,340 Climbing Washington Center
03:57PM 39.5239 -75.4517 46° Northeast 407 468 30,100 1,800 Climbing Washington Center
03:58PM 39.6069 -75.3436 45° Northeast 407 468 31,600 1,380 Climbing Washington Center
04:00PM 39.7622 -75.1269 47° Northeast 445 512 34,200 1,380 Climbing New York Center
04:01PM 39.8478 -75.0050 48° Northeast 455 524 35,800 1,380 Climbing New York Center
04:02PM 39.9381 -74.8697 49° Northeast 455 524 37,000 600 Climbing New York Center
04:03PM 40.0169 -74.7606 47° Northeast 455 524 37,000  Level New York Center
04:04PM 40.1258 -74.6800 29° Northeast 434 499 37,000  Level New York Center
04:05PM 40.2272 -74.6422 16° North 405 466 37,000  Level New York Center
04:06PM 40.3475 -74.6000 15° North 405 466 37,000  Level New York Center
04:07PM 40.4592 -74.5625 14° North 405 466 37,000  Level New York Center
04:08PM 40.5683 -74.5303 13° North 400 460 37,000  Level New York Center
04:09PM 40.6800 -74.4953 13° North 400 460 37,000  Level New York Center
04:10PM 40.7936 -74.4578 14° North 400 460 37,000  Level New York Center
04:11PM 40.9072 -74.4200 14° North 400 460 37,000  Level New York Center
04:14PM 41.1714 -74.3372 13° North 404 465 37,000  Level Boston Center
04:15PM 41.2806 -74.2992 15° North 409 471 37,000  Level Boston Center
04:16PM 41.4064 -74.2556 15° North 409 471 37,000 -540 Level Boston Center
04:17PM 41.5153 -74.2200 14° North 409 471 36,000 -1,440 Descending Boston Center
04:18PM 41.6136 -74.1922 12° North 409 471 34,200 -1,860 Descending Boston Center
04:19PM 41.7206 -74.1561 14° North 395 455 32,400 -1,500 Descending Boston Center
04:20PM 41.8231 -74.1200 15° North 388 447 31,200 -720 Descending Boston Center
04:21PM 41.9239 -74.0669 21° North 388 447 31,000 -420 Descending Boston Center
04:22PM 42.0025 -73.9542 47° Northeast 389 448 30,400 -840 Descending Boston Center
04:23PM 42.0914 -73.8558 39° Northeast 402 463 29,400 -1,740 Descending Boston Center
04:24PM 42.1739 -73.7539 42° Northeast 402 463 27,000 -1,800 Descending Boston Center
04:25PM 42.2628 -73.6492 41° Northeast 414 476 25,800 -1,320 Descending Boston Center
04:26PM 42.3406 -73.5608 40° Northeast 398 458 24,400 -1,740 Descending Boston Center
04:27PM 42.4208 -73.4667 41° Northeast 376 433 22,400 -2,100 Descending Boston Center
04:28PM 42.5050 -73.3667 41° Northeast 376 433 20,400 -1,680 Descending Boston Center
04:29PM 42.5744 -73.2689 46° Northeast 376 433 19,100 -720 Descending Boston Center
04:30PM 42.6108 -73.1369 69° East 338 389 19,000 -60 Descending Boston Center
04:31PM 42.6367 -73.0158 74° East 362 417 19,000  Level Boston Center
04:32PM 42.6728 -72.8636 72° East 368 423 19,000 -180 Level Boston Center
04:33PM 42.7022 -72.7283 73° East 368 423 18,700 -600 Descending Boston Center
04:34PM 42.7294 -72.6011 74° East 368 423 17,800 -1,380 Descending Boston Center
04:35PM 42.7567 -72.4711 74° East 357 411 16,000 -1,860 Descending Boston Center
04:36PM 42.7839 -72.3467 73° East 357 411 14,200 -1,740 Descending Boston Center
04:37PM 42.8003 -72.2222 80° East 344 396 12,600 -1,740 Descending Boston Center
04:38PM 42.8125 -72.0975 82° East 330 380 10,700 -1,440 Descending Boston Center
04:39PM 42.8558 -71.9983 59° Northeast 308 354 9,700 -1,440 Descending Boston Center
04:40PM 42.8972 -71.9044 59° Northeast 293 337 7,900 -1,740 Descending Boston Center
04:41PM 42.9383 -71.8133 58° Northeast 287 330 6,300 -1,620 Descending Boston Center
04:42PM 42.9817 -71.7278 55° Northeast 280 322 4,700 -1,560 Descending Boston Center
04:43PM 43.0144 -71.6364 64° Northeast 275 316 3,200 -1,140 Descending Boston Center
04:44PM 43.0325 -71.5539 73° East 258 297 2,500 -660 Descending Boston Center
04:45PM 43.0153 -71.4831 108° East 163 188 1,800 -720 Descending Boston Center
04:46PM 42.9778 -71.4611 157° South 143 165 1,000 -780 Descending Boston Center
04:47PM 42.9464 -71.4444 159° South 133 153 300 3,960 Descending Boston Center
04:48PM 42.9064 -71.4197 156° South 133 153 9,000 4,260 Climbing Boston Center
04:49PM 42.8686 -71.3975 157° South 133 153 9,000  Level Boston Center
04:50PM 42.8331 -71.3783 158° South 133 153 9,000  Level Boston Center
04:51PM 42.7953 -71.3564 157° South 133 153 9,000  Level Boston Center
04:53PM 42.9167 -71.4333 316° Northwest  Level FlightAware Approximate
05:00PM 42.9328 -71.4358 316° Northwest  Level Estimated
05:01PM 42.9328 -71.4358 316° Northwest  Level Estimated
05:02PM 42.9328 -71.4358 316° Northwest  Level Estimated
05:03PM 42.9328 -71.4358 316° Northwest  Level Estimated
05:04PM 42.9328 -71.4358 316° Northwest  Level Estimated